KOZS

Camdenton Memorial-Lake Regional Airport

Camdenton, Missouri, USA
METAR KOZS 181355Z AUTO 11005KT 2SM BR OVC003 02/02 A3004 RMK AO2
Observed Flight Rules
Jan-18 @ 13:55 UTC (35 minutes ago) Instrument Flight Rules
Wind Visibility Clouds Conditions
110° at 5 knots 2 miles
  • Overcast at 300' AGL
  • Mist
Temperatures Readings
Current 2°C / 36°F
Dewpoint 2°C / 36°F
Humidity 100%
Altimeter 30.04" Hg
Pressure 1017.32 hPa
Elevation 324
METAR KOZS 181355Z AUTO 11005KT 2SM BR OVC003 02/02 A3004 RMK AO2
Observed Flight Rules
Jan-18 @ 13:55 UTC
(35 minutes ago)
LIFR
Wind Visibility
110° at 5 knots 2 miles
Clouds
  • Overcast at 300' AGL
Conditions
  • Mist
Temperature Dewpoint
2°C / 36°F 2°C / 36°F
Humidity Altimeter Pressure
100% 30.04" Hg 1017.32 hPa